Latest Weather Observations for Mount Hotham

IDV60801

Issued at 5:42 pm EST Thursday 18 July 2024 (issued every 10 minutes, with the page automatically refreshed every 10 minutes)

About weather observations | Map of weather stations | Latest weather observations for VIC | Other Formats
Station Details ID: 083085 Name: MOUNT HOTHAM Lat: -36.98 Lon: 147.13 Height: 1849.0 m
Data from the previous 72 hours. | See also: Recent months at Mount Hotham
Date/Time
EST
Temp
°C
App
Temp
°C
Dew
Point
°C
Rel
Hum
%
Delta-T
°C
Wind Press
QNH
hPa
Press
MSL
hPa
Rain since
9am
mm
Dir  Spd
km/h
Gust
km/h
Spd
kts
Gust
kts
18/05:30pm -2.7 -9.6 -2.8 99 -0.1 NW 24 43 13 23 - - 0.0
18/05:00pm -3.5 -9.2 -3.6 99 -0.1 WNW 17 24 9 13 - - 0.0
18/04:30pm -2.7 -8.9 -2.8 99 -0.1 NW 20 30 11 16 - - 0.0
18/04:00pm -2.8 -9.4 -2.9 99 -0.1 WNW 22 26 12 14 - - 0.0
18/03:30pm -2.7 -10.0 -2.8 99 -0.1 WNW 26 30 14 16 - - 0.0
18/03:00pm -2.6 -8.7 -2.7 99 -0.1 WNW 20 26 11 14 - - 0.0
18/02:30pm -2.2 -7.7 -2.3 99 -0.1 WNW 17 22 9 12 - - 0.0
18/02:00pm -1.7 -5.6 -1.8 99 0.0 WNW 9 15 5 8 - - 0.0
18/01:30pm -2.6 -5.0 -2.9 98 0.0 CALM 0 4 0 2 - - 0.0
18/01:00pm -4.2 -8.5 -4.6 97 0.0 SW 9 17 5 9 - - 0.0
18/12:30pm -4.2 -8.9 -4.6 97 0.0 S 11 15 6 8 - - 0.0
18/12:00pm -4.3 -10.1 -4.7 97 -0.1 S 17 24 9 13 - - 0.0
18/11:30am -4.4 -10.8 -4.8 97 -0.1 S 20 26 11 14 - - 0.0
18/11:00am -4.1 -8.7 -4.5 97 0.0 S 11 15 6 8 - - 0.0
18/10:30am -3.9 -9.7 -4.2 98 -0.1 S 17 26 9 14 - - 0.0
18/10:00am -4.2 -11.3 -4.6 97 0.0 S 24 32 13 17 - - 0.0
18/09:30am -4.5 -10.9 -4.9 97 -0.1 S 20 26 11 14 - - 0.0
18/09:00am -5.2 -12.0 -5.6 97 -0.1 S 22 28 12 15 - - 0.0
18/08:30am -5.1 -12.3 -5.5 97 -0.1 S 24 28 13 15 - - 0.0
18/08:00am -4.8 -11.0 -5.2 97 -0.1 S 19 20 10 11 - - 0.0
18/07:30am -4.8 -9.1 -5.2 97 -0.1 SSW 9 13 5 7 - - 0.0
18/07:00am -5.3 -11.2 -5.7 97 -0.1 SW 17 28 9 15 - - 0.0
18/06:30am -3.3 -7.8 -3.4 99 -0.1 SW 11 15 6 8 - - 0.0
18/06:00am -2.7 -8.3 -2.8 99 -0.1 WSW 17 22 9 12 - - 0.0
18/05:30am -2.4 -9.3 -2.5 99 -0.1 WNW 24 30 13 16 - - 0.0
18/05:00am -2.0 -8.8 -2.0 100 0.0 WNW 24 32 13 17 - - 0.0
18/04:30am -1.9 -8.7 -1.9 100 0.0 NW 24 32 13 17 - - 0.0
18/04:00am -1.8 -8.6 -1.8 100 0.0 NW 24 33 13 18 - - 0.0
18/03:30am -1.5 -7.5 -1.5 100 0.0 NNW 20 26 11 14 - - 0.0
18/03:00am -1.4 -6.8 -1.4 100 0.0 NNW 17 26 9 14 - - 0.0
18/02:30am -1.4 -7.4 -1.4 100 0.0 NW 20 28 11 15 - - 0.0
18/02:00am -1.5 -5.8 -1.5 100 0.0 WNW 11 15 6 8 - - 0.0
18/01:30am -1.3 -5.9 -1.3 100 0.0 W 13 19 7 10 - - 0.0
18/01:00am -1.5 -5.8 -1.5 100 0.0 W 11 15 6 8 - - 0.0
18/12:30am -1.5 -6.2 -1.5 100 0.0 W 13 19 7 10 - - 0.0
18/12:00am -1.8 -6.9 -1.8 100 0.0 W 15 19 8 10 - - 0.0
 
Date/Time
EST
Temp
°C
App
Temp
°C
Dew
Point
°C
Rel
Hum
%
Delta-T
°C
Wind Press
QNH
hPa
Press
MSL
hPa
Rain since
9am
mm
Dir  Spd
km/h
Gust
km/h
Spd
kts
Gust
kts
17/11:30pm -1.7 -6.8 -1.7 100 0.0 WSW 15 17 8 9 - - 0.0
17/11:00pm -2.1 -6.8 -2.1 100 0.0 W 13 15 7 8 - - 0.0
17/10:30pm -1.9 -6.2 -1.9 100 0.0 W 11 15 6 8 - - 0.0
17/10:00pm -2.0 -6.3 -2.0 100 0.0 W 11 17 6 9 - - 0.0
17/09:30pm -2.0 -6.7 -2.0 100 0.0 SW 13 19 7 10 - - 0.0
17/09:00pm -2.0 -6.7 -2.0 100 0.0 SW 13 20 7 11 - - 0.0
17/08:30pm -2.1 -7.2 -2.1 100 0.0 SW 15 20 8 11 - - 0.0
17/08:00pm -2.2 -8.3 -2.3 99 -0.1 S 20 24 11 13 - - 0.0
17/07:30pm -2.3 -7.8 -2.4 99 -0.1 S 17 20 9 11 - - 0.0
17/07:00pm -2.0 -7.5 -2.0 100 0.0 S 17 22 9 12 - - 0.0
17/06:30pm -1.7 -7.5 -1.7 100 0.0 S 19 24 10 13 - - 0.0
17/06:00pm -1.6 -8.4 -1.6 100 0.0 S 24 30 13 16 - - 0.0
17/05:30pm -1.6 -8.4 -1.6 100 0.0 S 24 28 13 15 - - 0.0
17/05:00pm -1.6 -9.9 -1.6 100 0.0 S 32 39 17 21 - - 0.0
17/04:30pm -1.6 -9.5 -1.6 100 0.0 S 30 35 16 19 - - 0.0
17/04:00pm -1.5 -9.0 -1.5 100 0.0 S 28 33 15 18 - - 0.0
17/03:30pm -1.4 -10.2 -1.4 100 0.0 SSE 35 41 19 22 - - 0.0
17/03:00pm -1.3 -9.5 -1.3 100 0.0 S 32 39 17 21 - - 0.0
17/02:30pm -1.5 -7.3 -1.5 100 0.0 SSE 19 35 10 19 - - 0.0
17/02:00pm -1.6 -3.8 -1.6 100 0.0 CALM 0 0 0 0 - - 0.0
17/01:30pm -1.8 -4.0 -1.8 100 0.0 CALM 0 0 0 0 - - 0.0
17/01:00pm -2.2 -4.5 -2.3 99 -0.1 CALM 0 0 0 0 - - 0.0
17/12:30pm -2.5 -4.8 -2.6 99 -0.1 CALM 0 0 0 0 - - 0.0
17/12:00pm -2.8 -5.2 -2.9 99 -0.1 CALM 0 0 0 0 - - 0.0
17/11:30am -2.0 -4.3 -2.1 99 -0.1 CALM 0 0 0 0 - - 0.0
17/11:00am -2.3 -4.6 -2.4 99 -0.1 CALM 0 0 0 0 - - 0.0
17/10:30am -2.0 -4.3 -2.1 99 -0.1 CALM 0 0 0 0 - - 0.0
17/10:00am -1.9 -4.1 -1.9 100 0.0 CALM 0 0 0 0 - - 0.0
17/09:30am -1.7 -3.9 -1.7 100 0.0 CALM 0 0 0 0 - - 0.0
17/09:00am -1.9 -4.1 -1.9 100 0.0 CALM 0 0 0 0 - - 1.4
17/08:30am -2.1 -4.4 -2.1 100 0.0 CALM 0 0 0 0 - - 1.2
17/08:00am -2.4 -4.7 -2.5 99 -0.1 CALM 0 0 0 0 - - 1.2
17/07:30am -2.4 -4.7 -2.5 99 -0.1 CALM 0 0 0 0 - - 1.2
17/07:00am -2.5 -4.8 -2.6 99 -0.1 CALM 0 0 0 0 - - 1.2
17/06:30am -2.8 -5.2 -2.9 99 -0.1 CALM 0 0 0 0 - - 1.2
17/06:00am -3.4 -5.8 -3.5 99 -0.1 CALM 0 0 0 0 - - 1.2
17/05:30am -3.8 -6.3 -4.1 98 -0.1 CALM 0 0 0 0 - - 1.2
17/05:00am -3.6 -6.1 -3.9 98 -0.1 CALM 0 0 0 0 - - 1.2
17/04:30am -2.8 -5.2 -2.9 99 -0.1 CALM 0 0 0 0 - - 1.2
17/04:00am -3.3 -5.7 -3.4 99 -0.1 CALM 0 0 0 0 - - 1.2
17/03:30am -2.0 -4.3 -2.0 100 0.0 CALM 0 0 0 0 - - 1.2
17/03:00am -2.1 -4.4 -2.1 100 0.0 CALM 0 0 0 0 - - 1.2
17/02:30am -1.9 -4.1 -1.9 100 0.0 CALM 0 0 0 0 - - 1.2
17/02:00am -2.0 -4.3 -2.0 100 0.0 CALM 0 0 0 0 - - 1.2
17/01:30am -2.1 -4.4 -2.1 100 0.0 CALM 0 0 0 0 - - 1.2
17/01:00am -2.1 -4.4 -2.1 100 0.0 CALM 0 0 0 0 - - 1.2
17/12:30am -2.0 -4.3 -2.0 100 0.0 CALM 0 0 0 0 - - 1.2
17/12:00am -1.7 -3.9 -1.7 100 0.0 CALM 0 0 0 0 - - 1.2
 
Date/Time
EST
Temp
°C
App
Temp
°C
Dew
Point
°C
Rel
Hum
%
Delta-T
°C
Wind Press
QNH
hPa
Press
MSL
hPa
Rain since
9am
mm
Dir  Spd
km/h
Gust
km/h
Spd
kts
Gust
kts
16/11:30pm -1.7 -3.9 -1.7 100 0.0 CALM 0 0 0 0 - - 1.2
16/11:00pm -1.6 -3.8 -1.6 100 0.0 CALM 0 0 0 0 - - 1.2
16/10:31pm -1.6 -11.2 -1.6 100 0.0 SSE 39 57 21 31 - - 1.2
16/10:30pm -1.6 -11.6 -1.6 100 0.0 SSE 41 57 22 31 - - 1.2
16/10:19pm -1.6 -13.3 -1.6 100 0.0 SSE 50 69 27 37 - - 1.2
16/10:00pm -1.4 -12.3 -1.4 100 0.0 SSE 46 57 25 31 - - 1.0
16/09:30pm -1.2 -14.2 -1.2 100 0.0 SSE 57 67 31 36 - - 1.0
16/09:00pm -1.4 -13.5 -1.4 100 0.0 SSE 52 63 28 34 - - 1.0
16/08:38pm -1.7 -13.4 -1.7 100 0.0 SSE 50 69 27 37 - - 1.0
16/08:35pm -1.7 -13.8 -1.7 100 0.0 SSE 52 69 28 37 - - 1.0
16/08:30pm -1.4 -14.8 -1.4 100 0.0 SSE 59 70 32 38 - - 1.0
16/08:04pm -1.3 -7.1 -1.3 100 0.0 SSE 19 67 10 36 - - 1.0
16/08:02pm -1.3 -4.8 -1.3 100 0.0 SSE 7 65 4 35 - - 1.0
16/08:00pm -1.3 -3.5 -1.3 100 0.0 CALM 0 0 0 0 - - 1.0
16/07:30pm -1.7 -6.4 -1.7 100 0.0 - 13 57 7 31 - - 1.0
16/07:23pm -1.7 -10.9 -1.7 100 0.0 SSE 37 57 20 31 - - 1.0
16/07:00pm -1.8 -12.2 -1.8 100 0.0 SSE 43 63 23 34 - - 1.0
16/06:36pm -1.2 -13.6 -1.2 100 0.0 SSE 54 72 29 39 - - 1.0
16/06:30pm -1.2 -12.9 -1.2 100 0.0 SSE 50 59 27 32 - - 1.0
16/06:00pm -1.3 -13.7 -1.3 100 0.0 SSE 54 67 29 36 - - 1.0
16/05:30pm -0.8 -14.9 -0.8 100 0.0 SSE 63 74 34 40 - - 1.0
16/05:06pm 0.1 -13.5 0.1 100 0.0 SSE 61 83 33 45 - - 1.0
16/05:04pm 0.0 -12.6 0.0 100 0.0 SSE 56 74 30 40 - - 1.0
16/05:00pm 0.1 -11.7 0.1 100 0.0 SSE 52 65 28 35 - - 1.0
16/04:30pm 0.1 -12.5 0.1 100 0.0 SSE 56 67 30 36 - - 1.0
16/04:00pm 0.1 -13.8 0.1 100 0.0 SSE 63 72 34 39 - - 1.0
16/03:30pm 0.1 -12.7 0.1 100 0.0 SSE 57 65 31 35 - - 0.8
16/03:00pm 0.1 -11.4 0.1 100 0.0 SSE 50 59 27 32 - - 0.6
16/02:30pm 0.1 -9.3 0.1 100 0.0 S 39 44 21 24 - - 0.4
16/02:00pm 0.1 -9.7 0.1 100 0.0 S 41 50 22 27 - - 0.2
16/01:30pm 0.1 -8.9 0.1 100 0.0 S 37 44 20 24 - - 0.0
16/01:00pm 0.0 -8.6 0.0 100 0.0 S 35 43 19 23 - - 0.0
16/12:30pm 0.0 -9.8 0.0 100 0.0 SSE 41 54 22 29 - - 0.0
16/12:00pm 0.0 -11.9 0.0 100 0.0 SSE 52 59 28 32 - - 0.0
16/11:30am 0.0 -10.7 0.0 100 0.0 SSE 46 57 25 31 - - 0.0
16/11:00am 0.0 -10.7 0.0 100 0.0 SSE 46 61 25 33 - - 0.0
16/10:41am -0.1 -12.9 -0.1 100 0.0 SSE 57 76 31 41 - - 0.0
16/10:30am -0.1 -15.4 -0.1 100 0.0 SSE 70 83 38 45 - - 0.0
16/10:00am 0.1 -13.5 0.1 100 0.0 SSE 61 76 33 41 - - 0.0
16/09:30am 0.1 -12.5 0.1 100 0.0 SSE 56 70 30 38 - - 0.0
16/09:10am 0.1 -13.5 0.1 100 0.0 SSE 61 80 33 43 - - 0.0
16/09:00am 0.1 -15.0 0.1 100 0.0 SSE 69 82 37 44 - - 1.4
16/08:30am 0.0 -17.8 0.0 100 0.0 SSE 83 102 45 55 - - 1.4
16/08:22am 0.0 -16.0 0.0 100 0.0 SSE 74 93 40 50 - - 1.4
16/08:00am -0.2 -16.7 -0.2 100 0.0 SSE 76 91 41 49 - - 1.4
16/07:51am -0.2 -15.9 -0.2 100 0.0 SSE 72 91 39 49 - - 1.4
16/07:30am -0.4 -15.6 -0.4 100 0.0 S 69 82 37 44 - - 1.4
16/07:00am -0.7 -15.1 -0.7 100 0.0 S 65 74 35 40 - - 1.4
16/06:30am -0.9 -12.5 -0.9 100 0.0 S 50 59 27 32 - - 1.4
16/06:00am -1.2 -12.1 -1.2 100 0.0 S 46 57 25 31 - - 1.4
16/05:30am -1.2 -10.0 -1.2 100 0.0 S 35 44 19 24 - - 1.4
16/05:00am -1.0 -10.5 -1.0 100 0.0 S 39 65 21 35 - - 1.4
16/04:57am -0.9 -8.3 -0.9 100 0.0 S 28 65 15 35 - - 1.4
16/04:53am -0.9 -4.7 -0.9 100 0.0 S 9 54 5 29 - - 1.4
16/04:30am -1.0 -8.1 -1.0 100 0.0 S 26 35 14 19 - - 1.4
16/04:00am -1.1 -5.7 -1.1 100 0.0 - 13 39 7 21 - - 1.4
16/03:30am -1.1 -3.2 -1.1 100 0.0 CALM 0 0 0 0 - - 1.4
16/03:00am -1.6 -3.8 -1.6 100 0.0 CALM 0 0 0 0 - - 1.4
16/02:30am -2.3 -4.6 -2.4 99 -0.1 CALM 0 0 0 0 - - 1.4
16/02:00am -2.4 -4.7 -2.5 99 -0.1 CALM 0 0 0 0 - - 1.4
16/01:30am -2.8 -5.2 -2.9 99 -0.1 CALM 0 0 0 0 - - 1.4
16/01:00am -3.0 -5.4 -3.1 99 -0.1 CALM 0 0 0 0 - - 1.4
16/12:30am -3.2 -5.6 -3.3 99 -0.1 CALM 0 0 0 0 - - 1.4
16/12:00am -3.3 -5.8 -3.6 98 0.0 CALM 0 0 0 0 - - 1.4
 
Date/Time
EST
Temp
°C
App
Temp
°C
Dew
Point
°C
Rel
Hum
%
Delta-T
°C
Wind Press
QNH
hPa
Press
MSL
hPa
Rain since
9am
mm
Dir  Spd
km/h
Gust
km/h
Spd
kts
Gust
kts
15/11:30pm -3.2 -5.6 -3.3 99 -0.1 CALM 0 0 0 0 - - 1.4
15/11:00pm -3.4 -5.9 -3.7 98 -0.1 CALM 0 0 0 0 - - 1.4
15/10:30pm -3.4 -5.9 -3.7 98 -0.1 CALM 0 0 0 0 - - 1.4
15/10:00pm -3.4 -5.9 -3.7 98 -0.1 CALM 0 0 0 0 - - 1.4
15/09:30pm -3.4 -5.9 -3.7 98 -0.1 CALM 0 0 0 0 - - 1.4
15/09:00pm -3.4 -5.9 -3.7 98 -0.1 CALM 0 0 0 0 - - 1.4
15/08:30pm -3.4 -5.9 -3.7 98 -0.1 CALM 0 0 0 0 - - 1.4
15/08:00pm -3.4 -5.9 -3.7 98 -0.1 CALM 0 0 0 0 - - 1.4
15/07:30pm -3.5 -6.0 -3.8 98 -0.1 CALM 0 0 0 0 - - 1.4
15/07:00pm -3.5 -6.0 -3.8 98 -0.1 CALM 0 0 0 0 - - 1.4
15/06:30pm -3.6 -6.1 -3.9 98 -0.1 CALM 0 0 0 0 - - 1.4
15/06:00pm -3.6 -6.1 -3.9 98 -0.1 CALM 0 0 0 0 - - 1.4

Other formats

Comma delimited format used in spreadsheet applications
http://www.bom.gov.au/fwo/IDV60801/IDV60801.94906.axf

JavaScript Object Notation format (JSON) in row-major order
http://www.bom.gov.au/fwo/IDV60801/IDV60801.94906.json

Data quality

Most of these data are generated automatically and are frequently updated. Quality checks on data are not normally performed. It is possible for incorrect values to appear. Refer to information at About Latest Weather Observations and please check the disclaimer before using these data.